createdAt,value
2024-05-09T00:00:39.062Z,6.80
2024-05-09T00:01:34.097Z,6.43
2024-05-09T00:02:33.132Z,7.08
2024-05-09T00:03:33.131Z,6.34
2024-05-09T00:04:33.105Z,6.81
2024-05-09T00:05:33.178Z,7.18
2024-05-09T00:06:33.065Z,7.43
2024-05-09T00:07:33.077Z,6.89
2024-05-09T00:08:33.165Z,7.33
2024-05-09T00:09:33.065Z,7.99
2024-05-09T00:10:37.035Z,7.68
2024-05-09T00:11:34.159Z,7.04
2024-05-09T00:12:33.288Z,6.55
2024-05-09T00:13:33.122Z,7.38
2024-05-09T00:14:33.220Z,7.36
2024-05-09T00:15:33.159Z,7.07
2024-05-09T00:16:33.157Z,6.88
2024-05-09T00:17:33.392Z,8.24
2024-05-09T00:18:33.227Z,6.92
2024-05-09T00:19:33.264Z,7.46
2024-05-09T00:20:38.383Z,7.30
2024-05-09T00:21:34.130Z,7.22
2024-05-09T00:22:33.160Z,6.64
2024-05-09T00:23:33.255Z,7.51
2024-05-09T00:24:33.175Z,7.17
2024-05-09T00:25:33.154Z,7.30
2024-05-09T00:26:33.208Z,7.20
2024-05-09T00:27:33.284Z,7.39
2024-05-09T00:28:33.162Z,7.27
2024-05-09T00:29:33.200Z,7.39
2024-05-09T00:30:35.934Z,6.73
2024-05-09T00:31:33.194Z,7.35
2024-05-09T00:32:33.374Z,7.67
2024-05-09T00:33:33.352Z,7.91
2024-05-09T00:34:33.225Z,7.22
2024-05-09T00:35:33.353Z,7.54
2024-05-09T00:36:33.178Z,7.25
2024-05-09T00:37:33.291Z,8.13
2024-05-09T00:38:33.278Z,7.27
2024-05-09T00:39:33.204Z,7.06
2024-05-09T00:40:38.959Z,7.47
2024-05-09T00:41:34.385Z,7.73
2024-05-09T00:42:33.213Z,7.21
2024-05-09T00:43:33.209Z,7.21
2024-05-09T00:44:33.368Z,7.71
2024-05-09T00:45:33.184Z,8.32
2024-05-09T00:46:33.210Z,8.55
2024-05-09T00:47:33.387Z,8.03
2024-05-09T00:48:33.366Z,7.48
2024-05-09T00:49:33.317Z,9.10
2024-05-09T00:50:36.532Z,8.05
2024-05-09T00:51:33.287Z,8.72
2024-05-09T00:52:33.298Z,8.81
2024-05-09T00:53:33.391Z,8.35
2024-05-09T00:54:33.298Z,8.74
2024-05-09T00:55:33.295Z,7.79
2024-05-09T00:56:33.471Z,7.53
2024-05-09T00:57:33.302Z,9.42
2024-05-09T00:58:33.293Z,8.75
2024-05-09T00:59:33.360Z,8.39
2024-05-09T01:00:39.008Z,8.86
2024-05-09T01:01:34.401Z,9.23
2024-05-09T01:02:33.433Z,9.32
2024-05-09T01:03:33.550Z,8.43
2024-05-09T01:04:33.348Z,9.10
2024-05-09T01:05:33.388Z,7.94
2024-05-09T01:06:33.317Z,8.22
2024-05-09T01:07:33.818Z,8.65
2024-05-09T01:08:33.516Z,7.82
2024-05-09T01:09:33.367Z,8.17
2024-05-09T01:10:35.260Z,8.24
2024-05-09T01:11:33.564Z,8.61
2024-05-09T01:12:33.512Z,8.79
2024-05-09T01:13:33.442Z,7.93
2024-05-09T01:14:33.536Z,8.40
2024-05-09T01:15:33.465Z,9.06
2024-05-09T01:16:33.609Z,8.13
2024-05-09T01:17:33.653Z,8.98
2024-05-09T01:18:33.550Z,7.82
2024-05-09T01:19:33.539Z,8.45
2024-05-09T01:20:41.026Z,8.66
2024-05-09T01:21:34.468Z,8.01
2024-05-09T01:22:33.813Z,9.43
2024-05-09T01:23:33.577Z,8.92
2024-05-09T01:24:33.448Z,8.33
2024-05-09T01:25:33.450Z,9.98
2024-05-09T01:26:33.542Z,9.39
2024-05-09T01:27:33.466Z,9.03
2024-05-09T01:28:33.520Z,9.05
2024-05-09T01:29:33.518Z,9.25
2024-05-09T01:30:36.109Z,8.93
2024-05-09T01:31:33.590Z,9.78
2024-05-09T01:32:33.675Z,8.64
2024-05-09T01:33:33.763Z,8.92
2024-05-09T01:34:33.559Z,8.73
2024-05-09T01:35:33.560Z,9.18
2024-05-09T01:36:33.508Z,8.88
2024-05-09T01:37:33.815Z,9.76
2024-05-09T01:38:33.599Z,9.53
2024-05-09T01:39:33.519Z,8.79
2024-05-09T01:40:38.042Z,9.19
2024-05-09T01:41:34.583Z,9.17
2024-05-09T01:42:33.547Z,8.60
2024-05-09T01:43:33.546Z,9.20
2024-05-09T01:44:33.598Z,9.33
2024-05-09T01:45:33.567Z,9.03
2024-05-09T01:46:33.529Z,9.86
2024-05-09T01:47:33.697Z,9.01
2024-05-09T01:48:33.619Z,10.23
2024-05-09T01:49:33.629Z,9.31
2024-05-09T01:50:38.678Z,9.54
2024-05-09T01:51:34.615Z,9.26
2024-05-09T01:52:33.595Z,8.93
2024-05-09T01:53:33.683Z,8.46
2024-05-09T01:54:33.594Z,8.56
2024-05-09T01:55:33.593Z,10.19
2024-05-09T01:56:33.711Z,10.50
2024-05-09T01:57:33.598Z,10.20
2024-05-09T01:58:33.612Z,9.24
2024-05-09T01:59:33.665Z,9.67
2024-05-09T02:00:39.141Z,9.30
2024-05-09T02:01:55.531Z,10.22
2024-05-09T02:02:34.687Z,9.12
2024-05-09T02:03:33.943Z,9.65
2024-05-09T02:04:33.723Z,9.63
2024-05-09T02:05:33.659Z,9.44
2024-05-09T02:06:33.641Z,9.10
2024-05-09T02:07:33.634Z,10.03
2024-05-09T02:08:33.681Z,9.43
2024-05-09T02:09:33.622Z,9.35
2024-05-09T02:10:33.882Z,8.46
2024-05-09T02:11:33.718Z,8.50
2024-05-09T02:12:33.960Z,8.93
2024-05-09T02:13:33.646Z,8.96
2024-05-09T02:14:33.690Z,8.65
2024-05-09T02:15:33.629Z,9.31
2024-05-09T02:16:33.632Z,8.68
2024-05-09T02:17:33.982Z,8.78
2024-05-09T02:18:33.707Z,9.67
2024-05-09T02:19:33.752Z,7.71
2024-05-09T02:20:36.507Z,8.46
2024-05-09T02:21:33.672Z,9.70
2024-05-09T02:22:33.666Z,10.07
2024-05-09T02:23:33.796Z,9.67
2024-05-09T02:24:33.676Z,9.06
2024-05-09T02:25:33.684Z,9.13
2024-05-09T02:26:33.695Z,8.74
2024-05-09T02:27:33.684Z,8.96
2024-05-09T02:28:33.666Z,9.57
2024-05-09T02:29:33.742Z,9.43
2024-05-09T02:30:39.122Z,9.39
2024-05-09T02:31:34.654Z,9.84
2024-05-09T02:32:33.821Z,9.10
2024-05-09T02:33:34.023Z,8.96
2024-05-09T02:34:33.766Z,8.18
2024-05-09T02:35:33.799Z,8.37
2024-05-09T02:36:33.694Z,8.75
2024-05-09T02:37:33.727Z,8.90
2024-05-09T02:38:33.755Z,9.23
2024-05-09T02:39:33.712Z,8.88
2024-05-09T02:40:37.695Z,9.47
2024-05-09T02:41:34.801Z,9.56
2024-05-09T02:42:33.775Z,9.08
2024-05-09T02:43:33.796Z,9.20
2024-05-09T02:44:33.924Z,9.68
2024-05-09T02:45:33.840Z,9.47
2024-05-09T02:46:33.775Z,9.63
2024-05-09T02:47:33.909Z,9.43
2024-05-09T02:48:33.837Z,10.42
2024-05-09T02:49:34.031Z,9.47
2024-05-09T02:50:38.463Z,8.76
2024-05-09T02:51:34.918Z,10.56
2024-05-09T02:52:33.916Z,9.98
2024-05-09T02:53:34.124Z,9.87
2024-05-09T02:54:33.919Z,8.99
2024-05-09T02:55:33.956Z,9.67
2024-05-09T02:56:33.991Z,8.98
2024-05-09T02:57:33.944Z,9.41
2024-05-09T02:58:33.932Z,8.95
2024-05-09T02:59:34.084Z,10.24
2024-05-09T03:00:38.949Z,9.37
2024-05-09T03:01:35.258Z,9.25
2024-05-09T03:02:34.172Z,10.10
2024-05-09T03:03:34.275Z,9.98
2024-05-09T03:04:34.185Z,9.08
2024-05-09T03:05:34.296Z,9.84
2024-05-09T03:06:34.048Z,9.52
2024-05-09T03:07:34.070Z,9.82
2024-05-09T03:08:34.362Z,8.97
2024-05-09T03:09:34.105Z,9.47
2024-05-09T03:11:34.372Z,9.15
2024-05-09T03:12:36.540Z,9.56
2024-05-09T03:13:34.263Z,8.35
2024-05-09T03:14:34.310Z,9.12
2024-05-09T03:15:34.247Z,9.11
2024-05-09T03:16:34.256Z,9.60
2024-05-09T03:17:34.617Z,10.06
2024-05-09T03:18:34.273Z,9.67
2024-05-09T03:19:34.302Z,9.19
2024-05-09T03:20:35.970Z,9.54
2024-05-09T03:21:34.282Z,9.56
2024-05-09T03:22:34.257Z,10.18
2024-05-09T03:23:34.305Z,9.46
2024-05-09T03:24:34.291Z,10.01
2024-05-09T03:25:34.549Z,10.12
2024-05-09T03:26:34.343Z,10.32
2024-05-09T03:27:34.263Z,10.18
2024-05-09T03:28:34.260Z,10.26
2024-05-09T03:29:34.353Z,10.01
2024-05-09T03:30:40.762Z,9.69
2024-05-09T03:31:35.394Z,9.34
2024-05-09T03:32:34.470Z,10.56
2024-05-09T03:33:34.534Z,9.14
2024-05-09T03:34:34.327Z,10.25
2024-05-09T03:35:34.359Z,10.63
2024-05-09T03:36:34.313Z,9.83
2024-05-09T03:37:34.295Z,9.51
2024-05-09T03:38:34.378Z,9.73
2024-05-09T03:39:34.312Z,9.96
2024-05-09T03:40:34.419Z,9.32
2024-05-09T03:41:34.551Z,8.66
2024-05-09T03:42:34.513Z,9.28
2024-05-09T03:43:34.632Z,8.94
2024-05-09T03:44:34.701Z,9.77
2024-05-09T03:45:34.685Z,8.75
2024-05-09T03:46:34.745Z,9.01
2024-05-09T03:47:34.944Z,8.60
2024-05-09T03:48:34.919Z,8.90
2024-05-09T03:49:35.021Z,8.68
2024-05-09T03:50:36.324Z,9.14
2024-05-09T03:51:35.061Z,9.26
2024-05-09T03:52:35.152Z,8.94
2024-05-09T03:53:35.279Z,8.25
2024-05-09T03:54:35.244Z,8.96
2024-05-09T03:55:35.312Z,9.38
2024-05-09T03:56:35.401Z,8.44
2024-05-09T03:57:35.531Z,9.09
2024-05-09T03:58:35.449Z,10.26
2024-05-09T03:59:35.559Z,9.90
2024-05-09T04:00:38.731Z,10.33
2024-05-09T04:01:35.678Z,8.64
2024-05-09T04:02:35.668Z,9.91
2024-05-09T04:03:35.593Z,9.73
2024-05-09T04:04:35.596Z,9.38
2024-05-09T04:05:35.694Z,9.64
2024-05-09T04:06:35.559Z,10.01
2024-05-09T04:07:35.567Z,10.86
2024-05-09T04:08:35.701Z,10.30
2024-05-09T04:09:35.568Z,9.32
2024-05-09T04:10:35.874Z,10.76
2024-05-09T04:11:35.664Z,10.51
2024-05-09T04:12:35.630Z,11.75
2024-05-09T04:13:35.579Z,10.71
2024-05-09T04:14:35.665Z,10.70
2024-05-09T04:15:35.607Z,10.70
2024-05-09T04:16:35.631Z,9.32
2024-05-09T04:17:35.884Z,9.84
2024-05-09T04:18:35.874Z,9.70
2024-05-09T04:19:35.926Z,10.97
2024-05-09T04:20:39.370Z,11.13
2024-05-09T04:21:36.905Z,10.13
2024-05-09T04:22:36.380Z,9.78
2024-05-09T04:23:35.998Z,9.36
2024-05-09T04:24:35.904Z,11.68
2024-05-09T04:25:35.893Z,10.34
2024-05-09T04:26:35.929Z,9.88
2024-05-09T04:27:35.917Z,10.05
2024-05-09T04:28:35.916Z,9.57
2024-05-09T04:29:36.001Z,9.19
2024-05-09T04:30:39.324Z,10.15
2024-05-09T04:31:36.922Z,10.31
2024-05-09T04:32:36.156Z,9.97
2024-05-09T04:33:36.283Z,9.22
2024-05-09T04:34:36.081Z,9.70
2024-05-09T04:35:35.992Z,9.76
2024-05-09T04:36:35.934Z,9.60
2024-05-09T04:37:35.962Z,9.92
2024-05-09T04:38:36.106Z,10.89
2024-05-09T04:39:35.942Z,9.80
2024-05-09T04:40:37.308Z,10.91
2024-05-09T04:41:36.144Z,9.30
2024-05-09T04:42:36.144Z,10.35
2024-05-09T04:43:36.175Z,9.43
2024-05-09T04:44:36.265Z,9.62
2024-05-09T04:45:36.298Z,10.34
2024-05-09T04:46:36.329Z,9.62
2024-05-09T04:47:37.007Z,9.81
2024-05-09T04:48:36.588Z,9.70
2024-05-09T04:49:37.438Z,9.68
2024-05-09T04:50:38.895Z,9.56
2024-05-09T04:51:36.562Z,9.71
2024-05-09T04:52:36.571Z,9.66
2024-05-09T04:53:36.702Z,9.57
2024-05-09T04:54:36.921Z,9.05
2024-05-09T04:55:36.633Z,8.51
2024-05-09T04:56:36.653Z,9.68
2024-05-09T04:57:36.564Z,9.68
2024-05-09T04:58:36.554Z,9.21
2024-05-09T04:59:36.666Z,9.62
2024-05-09T05:00:38.285Z,9.46
2024-05-09T05:01:36.980Z,9.41
2024-05-09T05:02:37.608Z,9.81
2024-05-09T05:03:37.125Z,10.15
2024-05-09T05:04:37.024Z,9.56
2024-05-09T05:05:37.095Z,9.70
2024-05-09T05:06:37.150Z,10.01
2024-05-09T05:07:37.220Z,9.60
2024-05-09T05:08:37.382Z,9.27
2024-05-09T05:09:37.311Z,9.58
2024-05-09T05:10:37.380Z,10.34
2024-05-09T05:11:37.564Z,10.24
2024-05-09T05:12:37.507Z,10.63
2024-05-09T05:13:40.893Z,9.72
2024-05-09T05:14:37.578Z,9.66
2024-05-09T05:15:37.566Z,9.24
2024-05-09T05:16:37.579Z,9.24
2024-05-09T05:17:37.767Z,10.11
2024-05-09T05:18:45.953Z,9.80
2024-05-09T05:19:46.082Z,10.28
2024-05-09T05:20:46.036Z,8.94
2024-05-09T05:21:45.854Z,9.25
2024-05-09T05:22:45.871Z,9.44
2024-05-09T05:23:45.919Z,9.63
2024-05-09T05:24:45.832Z,9.96
2024-05-09T05:25:45.868Z,9.85
2024-05-09T05:26:46.008Z,9.11
2024-05-09T05:27:45.856Z,9.60
2024-05-09T05:28:45.937Z,10.18
2024-05-09T05:29:45.922Z,9.46
2024-05-09T05:30:45.853Z,9.05
2024-05-09T05:31:45.948Z,9.04
2024-05-09T05:32:46.085Z,8.88
2024-05-09T05:33:45.939Z,8.75
2024-05-09T05:34:46.025Z,9.81
2024-05-09T05:35:45.873Z,9.66
2024-05-09T05:36:45.870Z,9.10
2024-05-09T05:37:45.887Z,9.50
2024-05-09T05:38:45.920Z,8.78
2024-05-09T05:39:45.864Z,9.39
2024-05-09T05:40:45.939Z,8.84
2024-05-09T05:41:45.896Z,9.11
2024-05-09T05:42:45.873Z,8.36
2024-05-09T05:43:45.918Z,10.55
2024-05-09T05:44:45.865Z,10.16
2024-05-09T05:45:45.870Z,9.22
2024-05-09T05:46:45.928Z,10.87
2024-05-09T05:47:46.386Z,10.34
2024-05-09T05:48:46.132Z,9.44
2024-05-09T05:49:46.057Z,8.94
2024-05-09T05:50:46.343Z,9.08
2024-05-09T05:51:46.169Z,9.49
2024-05-09T05:52:46.220Z,9.16
2024-05-09T05:53:46.313Z,8.23
2024-05-09T05:54:46.319Z,9.78
2024-05-09T05:55:46.474Z,9.21
2024-05-09T05:56:46.480Z,8.50
2024-05-09T05:57:46.470Z,9.10
2024-05-09T05:58:46.605Z,8.99
2024-05-09T05:59:46.651Z,8.05
2024-05-09T06:00:46.742Z,8.87
2024-05-09T06:01:46.759Z,8.94
2024-05-09T06:02:47.034Z,8.44
2024-05-09T06:03:47.110Z,8.87
2024-05-09T06:04:47.106Z,8.01
2024-05-09T06:05:47.189Z,8.69
2024-05-09T06:06:47.008Z,8.42
2024-05-09T06:07:47.543Z,8.67
2024-05-09T06:08:47.177Z,9.48
2024-05-09T06:09:48.244Z,8.84
2024-05-09T06:10:47.417Z,8.21
2024-05-09T06:11:47.240Z,9.32
2024-05-09T06:12:47.174Z,8.55
2024-05-09T06:13:47.216Z,8.68
2024-05-09T06:14:47.177Z,8.34
2024-05-09T06:15:47.190Z,8.42
2024-05-09T06:16:47.248Z,7.58
2024-05-09T06:17:47.348Z,8.12
2024-05-09T06:18:47.296Z,8.04
2024-05-09T06:19:47.358Z,7.86
2024-05-09T06:20:47.203Z,8.21
2024-05-09T06:21:47.186Z,9.14
2024-05-09T06:22:47.202Z,7.85
2024-05-09T06:23:47.211Z,8.50
2024-05-09T06:24:47.209Z,8.28
2024-05-09T06:25:47.191Z,8.81
2024-05-09T06:26:47.189Z,8.38
2024-05-09T06:27:47.214Z,8.30
2024-05-09T06:28:47.266Z,8.67
2024-05-09T06:29:47.219Z,8.49
2024-05-09T06:30:47.194Z,8.90
2024-05-09T06:31:47.237Z,7.90
2024-05-09T06:32:47.295Z,9.18
2024-05-09T06:33:47.305Z,7.98
2024-05-09T06:34:47.417Z,8.72
2024-05-09T06:35:47.303Z,9.20
2024-05-09T06:36:47.218Z,8.53
2024-05-09T06:37:47.259Z,7.99
2024-05-09T06:38:47.266Z,7.68
2024-05-09T06:39:47.221Z,8.50
2024-05-09T06:40:47.241Z,7.29
2024-05-09T06:41:47.233Z,8.71
2024-05-09T06:42:47.229Z,8.35
2024-05-09T06:43:47.292Z,7.29
2024-05-09T06:44:47.247Z,8.20
2024-05-09T06:45:47.872Z,8.70
2024-05-09T06:46:47.298Z,8.50
2024-05-09T06:47:47.395Z,7.57
2024-05-09T06:48:47.338Z,8.08
2024-05-09T06:49:47.389Z,8.59
2024-05-09T06:50:47.309Z,8.38
2024-05-09T06:51:47.226Z,8.97
2024-05-09T06:52:47.276Z,8.80
2024-05-09T06:53:47.292Z,8.51
2024-05-09T06:54:47.231Z,7.77
2024-05-09T06:55:47.271Z,7.43
2024-05-09T06:56:47.241Z,7.54
2024-05-09T06:57:47.280Z,6.95
2024-05-09T06:58:47.263Z,7.45
2024-05-09T06:59:47.248Z,7.76
2024-05-09T07:00:47.525Z,8.14
2024-05-09T07:01:47.310Z,7.92
2024-05-09T07:02:47.343Z,8.81
2024-05-09T07:03:47.306Z,7.64
2024-05-09T07:04:48.154Z,8.41
2024-05-09T07:05:48.641Z,7.77
2024-05-09T07:06:47.257Z,7.96
2024-05-09T07:07:47.380Z,7.41
2024-05-09T07:08:48.705Z,6.72
2024-05-09T07:09:47.425Z,7.05
2024-05-09T07:10:47.771Z,6.88
2024-05-09T07:11:47.809Z,5.84
2024-05-09T07:12:47.638Z,6.18
2024-05-09T07:13:47.718Z,5.43
2024-05-09T07:14:47.804Z,6.04
2024-05-09T07:15:47.805Z,6.02
2024-05-09T07:16:47.967Z,6.96
2024-05-09T07:17:48.072Z,6.64
2024-05-09T07:18:48.227Z,6.47
2024-05-09T07:19:48.201Z,6.08
2024-05-09T07:20:49.144Z,6.27
2024-05-09T07:21:48.238Z,5.95
2024-05-09T07:22:48.393Z,6.53
2024-05-09T07:23:48.433Z,6.13
2024-05-09T07:24:48.437Z,5.57
2024-05-09T07:25:48.638Z,6.49
2024-05-09T07:26:48.674Z,6.45
2024-05-09T07:27:48.591Z,5.89
2024-05-09T07:28:48.684Z,5.18
2024-05-09T07:29:48.751Z,5.31
2024-05-09T07:30:48.770Z,4.87
2024-05-09T07:31:48.812Z,4.55
2024-05-09T07:32:49.323Z,5.11
2024-05-09T07:33:48.970Z,5.03
2024-05-09T07:34:48.941Z,4.20
2024-05-09T07:35:49.017Z,4.43
2024-05-09T07:36:48.925Z,4.81
2024-05-09T07:37:49.012Z,4.48
2024-05-09T07:38:49.030Z,4.35
2024-05-09T07:39:49.012Z,4.09
2024-05-09T07:40:49.359Z,4.65
2024-05-09T07:41:49.053Z,4.20
2024-05-09T07:42:49.055Z,3.54
2024-05-09T07:43:49.084Z,4.06
2024-05-09T07:44:49.144Z,3.76
2024-05-09T07:45:53.541Z,4.46
2024-05-09T07:47:52.267Z,3.66
2024-05-09T07:49:13.670Z,3.19
2024-05-09T07:53:17.541Z,3.59
2024-05-09T07:53:35.288Z,3.65
2024-05-09T07:53:52.614Z,3.44
2024-05-09T07:54:49.435Z,3.00
2024-05-09T07:55:49.277Z,4.03
2024-05-09T07:56:49.280Z,3.78
2024-05-09T07:57:49.172Z,3.70
2024-05-09T07:58:49.115Z,3.91
2024-05-09T07:59:49.129Z,3.76
2024-05-09T08:00:49.236Z,3.42
2024-05-09T08:01:49.289Z,3.65
2024-05-09T08:02:49.147Z,3.52
2024-05-09T08:03:49.528Z,3.38
2024-05-09T08:04:49.162Z,3.61
2024-05-09T08:05:49.152Z,3.54
2024-05-09T08:06:49.216Z,3.54
2024-05-09T08:07:49.145Z,3.94
2024-05-09T08:08:49.168Z,4.18
2024-05-09T08:09:49.206Z,3.81
2024-05-09T08:10:49.198Z,3.72
2024-05-09T08:11:50.115Z,4.25
2024-05-09T08:12:49.273Z,3.51
2024-05-09T08:13:49.152Z,4.56
2024-05-09T08:14:49.163Z,3.98
2024-05-09T08:15:49.211Z,3.83
2024-05-09T08:16:49.153Z,3.66
2024-05-09T08:17:49.210Z,4.16
2024-05-09T08:18:49.299Z,3.73
2024-05-09T08:19:49.204Z,3.53
2024-05-09T08:20:49.216Z,3.84
2024-05-09T08:21:49.198Z,4.06
2024-05-09T08:22:49.187Z,4.15
2024-05-09T08:23:49.185Z,4.20
2024-05-09T08:24:49.213Z,3.71
2024-05-09T08:25:49.189Z,4.04
2024-05-09T08:26:49.177Z,3.54
2024-05-09T08:27:49.207Z,3.32
2024-05-09T08:28:49.195Z,3.06
2024-05-09T08:29:49.228Z,3.62
2024-05-09T08:30:49.456Z,3.28
2024-05-09T08:31:49.233Z,4.04
2024-05-09T08:32:49.247Z,3.83
2024-05-09T08:33:49.308Z,3.89
2024-05-09T08:34:49.197Z,4.13
2024-05-09T08:35:49.204Z,2.90
2024-05-09T08:36:49.277Z,3.98
2024-05-09T08:37:49.287Z,3.97
2024-05-09T08:38:49.313Z,2.89
2024-05-09T08:39:49.415Z,3.05
2024-05-09T08:40:49.504Z,3.08
2024-05-09T08:41:49.378Z,2.70
2024-05-09T08:42:49.496Z,2.64
2024-05-09T08:43:49.440Z,3.11
2024-05-09T08:44:49.533Z,2.85
2024-05-09T08:45:49.745Z,3.26
2024-05-09T08:46:49.573Z,3.30
2024-05-09T08:47:49.743Z,3.85
2024-05-09T08:48:49.946Z,3.36
2024-05-09T08:49:49.650Z,3.09
2024-05-09T08:50:49.726Z,3.38
2024-05-09T08:51:49.722Z,3.52
2024-05-09T08:52:49.717Z,3.33
2024-05-09T08:53:49.729Z,3.37
2024-05-09T08:54:49.759Z,3.66
2024-05-09T08:55:49.730Z,3.31
2024-05-09T08:56:49.727Z,3.47
2024-05-09T08:57:49.837Z,2.87
2024-05-09T08:58:49.792Z,3.06
2024-05-09T08:59:49.817Z,3.17
2024-05-09T09:00:50.139Z,3.62
2024-05-09T09:01:50.019Z,2.94
2024-05-09T09:02:49.985Z,2.54
2024-05-09T09:03:50.193Z,2.92
2024-05-09T09:04:50.288Z,3.32
2024-05-09T09:05:50.194Z,3.03
2024-05-09T09:06:51.446Z,3.06
2024-05-09T09:07:50.312Z,2.95
2024-05-09T09:08:50.400Z,2.36
2024-05-09T09:09:50.449Z,2.12
2024-05-09T09:10:50.512Z,2.38
2024-05-09T09:11:50.615Z,2.41
2024-05-09T09:12:50.654Z,2.41
2024-05-09T09:13:50.713Z,1.94
2024-05-09T09:14:50.792Z,2.42
2024-05-09T09:15:50.935Z,2.35
2024-05-09T09:16:50.898Z,2.58
2024-05-09T09:17:51.079Z,2.67
2024-05-09T09:18:51.178Z,2.40
2024-05-09T09:19:51.108Z,2.30
2024-05-09T09:20:51.144Z,2.76
2024-05-09T09:21:51.268Z,2.57
2024-05-09T09:22:51.267Z,1.87
2024-05-09T09:23:51.290Z,2.31
2024-05-09T09:24:51.405Z,2.09
2024-05-09T09:25:51.406Z,2.32
2024-05-09T09:26:51.450Z,1.82
2024-05-09T09:27:51.669Z,1.62
2024-05-09T09:28:51.531Z,1.40
2024-05-09T09:29:51.592Z,1.35
2024-05-09T09:30:51.686Z,1.96
2024-05-09T09:31:51.642Z,2.40
2024-05-09T09:32:51.768Z,1.71
2024-05-09T09:33:51.881Z,1.79
2024-05-09T09:34:51.732Z,1.72
2024-05-09T09:35:51.722Z,1.66
2024-05-09T09:36:51.774Z,1.86
2024-05-09T09:37:51.733Z,1.84
2024-05-09T09:38:51.771Z,1.23
2024-05-09T09:39:51.910Z,1.36
2024-05-09T09:40:51.878Z,1.81
2024-05-09T09:41:51.879Z,1.68
2024-05-09T09:42:52.024Z,1.85
2024-05-09T09:43:51.946Z,1.91
2024-05-09T09:45:01.862Z,2.01
2024-05-09T09:45:53.756Z,2.02
2024-05-09T09:46:52.037Z,2.04
2024-05-09T09:47:52.132Z,2.11
2024-05-09T09:48:52.133Z,1.38
2024-05-09T09:49:52.036Z,1.62
2024-05-09T09:50:52.195Z,1.76
2024-05-09T09:51:51.975Z,2.08
2024-05-09T09:52:51.976Z,2.01
2024-05-09T09:53:52.014Z,2.15
2024-05-09T09:54:52.065Z,2.42
2024-05-09T09:55:52.030Z,1.77
2024-05-09T09:56:51.977Z,2.31
2024-05-09T09:57:52.058Z,1.97
2024-05-09T09:58:51.992Z,1.94
2024-05-09T09:59:51.993Z,1.70
2024-05-09T10:00:52.139Z,2.10
2024-05-09T10:01:52.108Z,1.80
2024-05-09T10:02:52.146Z,1.98
2024-05-09T10:03:52.221Z,1.70
2024-05-09T10:04:52.295Z,2.04
2024-05-09T10:05:52.343Z,1.33
2024-05-09T10:06:52.339Z,1.96
2024-05-09T10:07:52.431Z,1.50
2024-05-09T10:08:52.475Z,1.73
2024-05-09T10:09:52.608Z,1.84
2024-05-09T10:10:52.870Z,2.05
2024-05-09T10:11:59.670Z,1.98
2024-05-09T10:12:53.706Z,1.82
2024-05-09T10:13:52.764Z,1.62
2024-05-09T10:14:52.682Z,1.64
2024-05-09T10:15:53.047Z,1.97
2024-05-09T10:16:52.696Z,2.05
2024-05-09T10:17:52.815Z,1.79
2024-05-09T10:18:53.014Z,1.73
2024-05-09T10:19:52.840Z,1.61
2024-05-09T10:20:52.674Z,1.40
2024-05-09T10:21:52.831Z,1.64
2024-05-09T10:22:52.802Z,1.65
2024-05-09T10:23:53.088Z,1.62
2024-05-09T10:24:53.015Z,1.30
2024-05-09T10:25:53.015Z,1.55
2024-05-09T10:26:53.054Z,1.38
2024-05-09T10:27:53.174Z,1.35
2024-05-09T10:28:53.079Z,1.25
2024-05-09T10:29:53.112Z,1.46
2024-05-09T10:30:53.229Z,1.30
2024-05-09T10:31:53.289Z,1.41
2024-05-09T10:32:53.343Z,1.20
2024-05-09T10:33:53.478Z,1.51
2024-05-09T10:34:53.374Z,1.37
2024-05-09T10:35:53.322Z,1.20
2024-05-09T10:36:53.395Z,1.30
2024-05-09T10:37:53.344Z,1.47
2024-05-09T10:38:53.398Z,1.41
2024-05-09T10:39:53.437Z,1.35
2024-05-09T10:40:53.481Z,1.50
2024-05-09T10:41:53.491Z,1.26
2024-05-09T10:42:53.525Z,1.46
2024-05-09T10:43:53.543Z,1.45
2024-05-09T10:44:53.557Z,1.28
2024-05-09T10:45:53.663Z,1.18
2024-05-09T10:46:53.631Z,1.22
2024-05-09T10:47:53.840Z,1.15
2024-05-09T10:48:53.777Z,1.12
2024-05-09T10:49:53.877Z,1.43
2024-05-09T10:50:53.741Z,1.23
2024-05-09T10:51:53.828Z,1.75
2024-05-09T10:52:53.751Z,1.69
2024-05-09T10:53:54.105Z,1.27
2024-05-09T10:54:53.871Z,1.54
2024-05-09T10:55:53.815Z,1.81
2024-05-09T10:56:53.820Z,1.69
2024-05-09T10:57:53.923Z,1.34
2024-05-09T10:58:53.883Z,1.56
2024-05-09T10:59:53.874Z,1.43
2024-05-09T11:00:54.035Z,1.45
2024-05-09T11:01:54.104Z,1.16
2024-05-09T11:02:53.973Z,1.48
2024-05-09T11:03:54.207Z,1.48
2024-05-09T11:04:54.181Z,1.35
2024-05-09T11:05:54.126Z,1.71
2024-05-09T11:06:54.089Z,1.66
2024-05-09T11:07:54.293Z,1.39
2024-05-09T11:08:54.184Z,1.42
2024-05-09T11:09:54.305Z,1.28
2024-05-09T11:10:54.307Z,1.28
2024-05-09T11:11:54.303Z,1.22
2024-05-09T11:12:54.273Z,1.71
2024-05-09T11:13:54.226Z,1.28
2024-05-09T11:14:54.247Z,1.34
2024-05-09T11:15:54.339Z,1.64
2024-05-09T11:16:54.336Z,1.51
2024-05-09T11:17:54.487Z,1.34
2024-05-09T11:18:54.621Z,1.92
2024-05-09T11:19:54.536Z,1.74
2024-05-09T11:20:54.551Z,1.60
2024-05-09T11:21:54.732Z,1.78
2024-05-09T11:22:54.820Z,1.85
2024-05-09T11:23:54.778Z,1.65
2024-05-09T11:24:55.010Z,1.44
2024-05-09T11:25:54.871Z,1.80
2024-05-09T11:26:54.954Z,1.94
2024-05-09T11:27:55.078Z,1.58
2024-05-09T11:28:55.052Z,1.38
2024-05-09T11:29:55.004Z,1.82
2024-05-09T11:30:55.138Z,1.58
2024-05-09T11:31:55.159Z,1.66
2024-05-09T11:32:55.234Z,1.72
2024-05-09T11:33:55.421Z,1.59
2024-05-09T11:34:55.228Z,1.51
2024-05-09T11:35:55.204Z,1.39
2024-05-09T11:36:55.293Z,1.94
2024-05-09T11:37:55.280Z,1.77
2024-05-09T11:38:55.294Z,1.85
2024-05-09T11:39:55.346Z,1.39
2024-05-09T11:40:55.344Z,1.30
2024-05-09T11:41:55.313Z,1.00
2024-05-09T11:42:55.411Z,1.21
2024-05-09T11:43:55.392Z,1.13
2024-05-09T11:44:55.435Z,0.92
2024-05-09T11:45:55.532Z,0.78
2024-05-09T11:46:55.572Z,0.87
2024-05-09T11:47:55.760Z,1.09
2024-05-09T11:48:55.723Z,1.24
2024-05-09T11:49:55.757Z,1.09
2024-05-09T11:50:55.806Z,0.93
2024-05-09T11:51:55.890Z,1.12
2024-05-09T11:52:55.762Z,0.79
2024-05-09T11:53:55.762Z,0.81
2024-05-09T11:54:55.855Z,0.80
2024-05-09T11:55:55.845Z,0.77
2024-05-09T11:56:55.859Z,0.58
2024-05-09T11:57:56.068Z,0.51
2024-05-09T11:58:55.969Z,0.43
2024-05-09T11:59:55.961Z,0.72
2024-05-09T12:00:56.100Z,0.93
2024-05-09T12:01:56.099Z,0.79
2024-05-09T12:02:56.105Z,0.76
2024-05-09T12:03:56.288Z,0.69
2024-05-09T12:04:56.270Z,0.53
2024-05-09T12:05:56.372Z,0.77
2024-05-09T12:06:56.421Z,0.69
2024-05-09T12:07:56.456Z,0.83
2024-05-09T12:08:56.544Z,0.69
2024-05-09T12:09:56.580Z,0.68
2024-05-09T12:10:57.304Z,0.64
2024-05-09T12:11:56.723Z,0.54
2024-05-09T12:12:56.771Z,1.03
2024-05-09T12:13:56.803Z,0.78
2024-05-09T12:14:56.874Z,0.39
2024-05-09T12:15:56.920Z,0.68
2024-05-09T12:16:57.017Z,0.46
2024-05-09T12:17:59.939Z,0.86
2024-05-09T12:18:57.302Z,0.63
2024-05-09T12:19:57.031Z,0.53
2024-05-09T12:20:57.017Z,0.35
2024-05-09T12:21:57.067Z,0.61
2024-05-09T12:22:57.038Z,0.60
2024-05-09T12:23:57.035Z,0.71
2024-05-09T12:24:57.102Z,0.78
2024-05-09T12:25:57.040Z,0.83
2024-05-09T12:26:57.053Z,0.44
2024-05-09T12:27:57.061Z,0.73
2024-05-09T12:28:57.023Z,0.80
2024-05-09T12:29:57.034Z,0.63
2024-05-09T12:30:57.096Z,0.76
2024-05-09T12:31:57.109Z,0.82
2024-05-09T12:32:57.258Z,0.57
2024-05-09T12:33:57.217Z,0.60
2024-05-09T12:34:57.034Z,0.39
2024-05-09T12:35:57.035Z,0.56
2024-05-09T12:36:57.159Z,0.54
2024-05-09T12:37:57.087Z,0.74
2024-05-09T12:38:57.224Z,0.40
2024-05-09T12:39:57.266Z,0.69
2024-05-09T12:40:57.386Z,0.65
2024-05-09T12:41:57.337Z,0.72
2024-05-09T12:42:57.467Z,0.59
2024-05-09T12:43:57.680Z,0.75
2024-05-09T12:44:57.439Z,0.75
2024-05-09T12:45:58.249Z,0.78
2024-05-09T12:46:57.613Z,0.76
2024-05-09T12:47:57.717Z,0.82
2024-05-09T12:48:57.744Z,0.69
2024-05-09T12:49:57.712Z,0.57
2024-05-09T12:50:57.907Z,0.61
2024-05-09T12:51:57.757Z,0.70
2024-05-09T12:52:57.821Z,0.47
2024-05-09T12:53:57.903Z,0.71
2024-05-09T12:54:57.951Z,0.67
2024-05-09T12:56:01.931Z,0.43
2024-05-09T12:56:58.998Z,0.75
2024-05-09T12:57:58.194Z,0.75
2024-05-09T12:58:58.034Z,0.56
2024-05-09T12:59:58.009Z,0.53
2024-05-09T13:00:58.163Z,0.56
2024-05-09T13:02:00.439Z,0.53
2024-05-09T13:02:58.237Z,0.76
2024-05-09T13:03:58.209Z,0.87
2024-05-09T13:04:58.126Z,0.51
2024-05-09T13:05:58.122Z,0.75
2024-05-09T13:06:58.030Z,0.56
2024-05-09T13:07:58.060Z,0.85
2024-05-09T13:08:58.059Z,0.61
2024-05-09T13:09:58.079Z,0.70
2024-05-09T13:10:58.110Z,0.73
2024-05-09T13:11:58.046Z,0.56
2024-05-09T13:12:58.100Z,1.02
2024-05-09T13:13:58.044Z,0.64
2024-05-09T13:14:58.029Z,0.52
2024-05-09T13:15:58.140Z,0.59
2024-05-09T13:16:58.076Z,0.38
2024-05-09T13:18:00.466Z,0.90
2024-05-09T13:18:58.070Z,0.73
2024-05-09T13:19:58.035Z,0.78
2024-05-09T13:20:58.073Z,0.97